Time,TemperatureF,DewpointF,PressureIn,WindDirection,WindDirectionDegrees,WindSpeedMPH,WindSpeedGustMPH,Humidity,HourlyPrecipIn,Conditions,Clouds,dailyrainin,SoftwareType,DateUTC
2013-01-01 00:01:00,39.0,30.7,30.22,WSW,248,0.0,0.8,72,0.00,,,0.00,WUHU216HW,2012-12-31 23:01:00,
2013-01-01 00:06:00,38.8,30.8,30.22,North,0,0.0,0.0,73,0.00,,,0.00,WUHU216HW,2012-12-31 23:06:00,
2013-01-01 00:11:00,38.1,30.2,30.22,North,0,0.9,1.1,73,0.00,,,0.00,WUHU216HW,2012-12-31 23:11:00,
2013-01-01 00:16:00,37.4,29.5,30.22,North,0,0.0,1.1,73,0.00,,,0.00,WUHU216HW,2012-12-31 23:16:00,
2013-01-01 00:21:00,37.2,29.3,30.22,North,0,0.0,0.0,73,0.00,,,0.00,WUHU216HW,2012-12-31 23:21:00,
2013-01-01 00:26:00,37.0,29.1,30.22,North,0,0.0,0.0,73,0.00,,,0.00,WUHU216HW,2012-12-31 23:26:00,
2013-01-01 00:31:00,37.2,29.3,30.22,WNW,293,0.0,0.0,73,0.00,,,0.00,WUHU216HW,2012-12-31 23:31:00,
2013-01-01 00:36:00,37.2,29.3,30.22,WNW,293,0.0,0.0,73,0.00,,,0.00,WUHU216HW,2012-12-31 23:36:00,
2013-01-01 00:41:00,37.5,29.7,30.22,NE,45,0.0,0.8,73,0.00,,,0.00,WUHU216HW,2012-12-31 23:41:00,
2013-01-01 00:46:00,37.9,30.0,30.22,NE,45,0.0,0.8,73,0.00,,,0.00,WUHU216HW,2012-12-31 23:46:00,
2013-01-01 00:51:00,37.9,30.0,30.21,NE,45,0.0,0.0,73,0.00,,,0.00,WUHU216HW,2012-12-31 23:51:00,
2013-01-01 00:56:00,38.4,30.5,30.21,NE,45,0.0,0.0,73,0.00,,,0.00,WUHU216HW,2012-12-31 23:56:00,
2013-01-01 01:01:00,39.0,31.0,30.21,ENE,68,0.0,0.0,73,0.00,,,0.00,WUHU216HW,2013-01-01 00:01:00,
2013-01-01 01:06:00,39.0,31.0,30.21,ENE,68,0.0,0.0,73,0.00,,,0.00,WUHU216HW,2013-01-01 00:06:00,
2013-01-01 01:11:00,38.8,30.8,30.21,ENE,68,0.0,0.0,73,0.00,,,0.00,WUHU216HW,2013-01-01 00:11:00,
2013-01-01 01:16:00,38.8,30.8,30.21,ENE,68,0.0,0.0,73,0.00,,,0.00,WUHU216HW,2013-01-01 00:16:00,
2013-01-01 01:21:00,38.8,30.8,30.21,ENE,68,0.0,0.0,73,0.00,,,0.00,WUHU216HW,2013-01-01 00:21:00,
2013-01-01 01:26:00,38.4,30.5,30.21,ENE,68,0.0,0.0,73,0.00,,,0.00,WUHU216HW,2013-01-01 00:26:00,
2013-01-01 01:31:00,37.9,30.0,30.21,NE,45,0.0,0.0,73,0.00,,,0.00,WUHU216HW,2013-01-01 00:31:00,
2013-01-01 01:36:00,37.2,29.3,30.21,NE,45,0.0,0.0,73,0.00,,,0.00,WUHU216HW,2013-01-01 00:36:00,
2013-01-01 01:41:00,36.6,28.8,30.21,NNE,23,0.0,0.0,73,0.00,,,0.00,WUHU216HW,2013-01-01 00:41:00,
2013-01-01 01:46:00,36.3,28.4,30.21,NNE,23,0.0,0.0,73,0.00,,,0.00,WUHU216HW,2013-01-01 00:46:00,
2013-01-01 01:51:00,36.1,28.2,30.22,NNE,23,0.0,0.0,73,0.00,,,0.00,WUHU216HW,2013-01-01 00:51:00,
2013-01-01 01:56:00,35.9,28.1,30.21,NNE,23,0.0,0.0,73,0.00,,,0.00,WUHU216HW,2013-01-01 00:56:00,
2013-01-01 02:01:00,35.9,28.1,30.21,NNE,23,0.0,0.0,73,0.00,,,0.00,WUHU216HW,2013-01-01 01:01:00,
2013-01-01 02:06:00,35.9,28.1,30.22,NNE,23,0.0,0.0,73,0.00,,,0.00,WUHU216HW,2013-01-01 01:06:00,
2013-01-01 02:11:00,35.9,27.7,30.22,NNE,23,0.0,0.0,73,0.00,,,0.00,WUHU216HW,2013-01-01 01:11:00,
2013-01-01 02:16:00,36.1,27.9,30.21,NNE,23,0.0,0.0,72,0.00,,,0.00,WUHU216HW,2013-01-01 01:16:00,
2013-01-01 02:21:00,36.1,27.9,30.21,NNE,23,0.0,0.0,72,0.00,,,0.00,WUHU216HW,2013-01-01 01:21:00,
2013-01-01 02:26:00,36.1,27.9,30.21,NNE,23,0.0,0.0,72,0.00,,,0.00,WUHU216HW,2013-01-01 01:26:00,
2013-01-01 02:31:00,35.9,27.7,30.21,NNE,23,0.0,0.0,72,0.00,,,0.00,WUHU216HW,2013-01-01 01:31:00,
2013-01-01 02:36:00,35.7,27.6,30.21,NNE,23,0.0,0.0,72,0.00,,,0.00,WUHU216HW,2013-01-01 01:36:00,
2013-01-01 02:41:00,35.4,27.5,30.21,NNE,23,0.0,0.0,73,0.00,,,0.00,WUHU216HW,2013-01-01 01:41:00,
2013-01-01 02:46:00,35.4,27.5,30.21,NNE,23,0.0,0.0,73,0.00,,,0.00,WUHU216HW,2013-01-01 01:46:00,
2013-01-01 02:51:00,35.2,27.0,30.21,NNE,23,0.0,0.0,72,0.00,,,0.00,WUHU216HW,2013-01-01 01:51:00,
2013-01-01 02:56:00,35.2,27.0,30.21,NNE,23,0.0,0.0,72,0.00,,,0.00,WUHU216HW,2013-01-01 01:56:00,
2013-01-01 03:01:00,34.8,26.7,30.21,NNE,23,0.0,0.0,72,0.00,,,0.00,WUHU216HW,2013-01-01 02:01:00,
2013-01-01 03:06:00,34.7,26.5,30.21,NNE,23,0.0,0.0,72,0.00,,,0.00,WUHU216HW,2013-01-01 02:06:00,
2013-01-01 03:11:00,34.7,26.5,30.21,NE,45,0.0,0.0,72,0.00,,,0.00,WUHU216HW,2013-01-01 02:11:00,
2013-01-01 03:16:00,34.8,26.3,30.20,NE,45,0.0,0.0,71,0.00,,,0.00,WUHU216HW,2013-01-01 02:16:00,
2013-01-01 03:21:00,34.8,26.3,30.20,NNE,23,0.0,0.0,71,0.00,,,0.00,WUHU216HW,2013-01-01 02:21:00,
2013-01-01 03:26:00,34.8,26.3,30.20,NNE,23,0.0,0.0,71,0.00,,,0.00,WUHU216HW,2013-01-01 02:26:00,
2013-01-01 03:31:00,34.7,26.2,30.20,NNE,23,0.0,0.0,71,0.00,,,0.00,WUHU216HW,2013-01-01 02:31:00,
2013-01-01 03:36:00,34.8,26.3,30.20,NNE,23,0.0,0.0,71,0.00,,,0.00,WUHU216HW,2013-01-01 02:36:00,
2013-01-01 03:41:00,35.2,26.7,30.20,North,0,0.0,0.0,71,0.00,,,0.00,WUHU216HW,2013-01-01 02:41:00,
2013-01-01 03:46:00,35.4,27.2,30.20,North,0,0.0,0.0,72,0.00,,,0.00,WUHU216HW,2013-01-01 02:46:00,
2013-01-01 03:51:00,35.4,27.2,30.20,North,0,0.0,0.0,72,0.00,,,0.00,WUHU216HW,2013-01-01 02:51:00,
2013-01-01 03:56:00,35.4,27.2,30.20,North,0,0.0,0.0,72,0.00,,,0.00,WUHU216HW,2013-01-01 02:56:00,
2013-01-01 04:01:00,35.2,27.0,30.20,North,0,0.0,0.0,72,0.00,,,0.00,WUHU216HW,2013-01-01 03:01:00,
2013-01-01 04:06:00,34.8,26.7,30.20,North,0,0.0,0.0,72,0.00,,,0.00,WUHU216HW,2013-01-01 03:06:00,
2013-01-01 04:11:00,34.8,26.3,30.20,North,0,0.0,0.0,71,0.00,,,0.00,WUHU216HW,2013-01-01 03:11:00,
2013-01-01 04:16:00,34.7,26.2,30.20,North,0,0.6,0.6,71,0.00,,,0.00,WUHU216HW,2013-01-01 03:16:00,
2013-01-01 04:21:00,34.5,26.0,30.20,NNE,23,0.0,0.8,71,0.00,,,0.00,WUHU216HW,2013-01-01 03:21:00,
2013-01-01 04:26:00,34.3,26.0,30.20,North,0,0.0,0.8,71,0.00,,,0.00,WUHU216HW,2013-01-01 03:26:00,
2013-01-01 04:31:00,34.8,26.0,30.19,NE,45,0.8,1.1,70,0.00,,,0.00,WUHU216HW,2013-01-01 03:31:00,
2013-01-01 04:36:00,35.4,26.9,30.20,NE,45,0.0,1.1,71,0.00,,,0.00,WUHU216HW,2013-01-01 03:36:00,
2013-01-01 04:41:00,35.7,27.6,30.19,NE,45,0.0,0.0,72,0.00,,,0.00,WUHU216HW,2013-01-01 03:41:00,
2013-01-01 04:46:00,35.6,27.4,30.19,NE,45,0.0,0.0,72,0.00,,,0.00,WUHU216HW,2013-01-01 03:46:00,
2013-01-01 04:51:00,35.4,27.2,30.19,NE,45,0.0,0.0,72,0.00,,,0.00,WUHU216HW,2013-01-01 03:51:00,
2013-01-01 04:56:00,35.2,27.0,30.19,NE,45,0.0,0.0,72,0.00,,,0.00,WUHU216HW,2013-01-01 03:56:00,
2013-01-01 05:01:00,34.8,26.7,30.19,NE,45,0.0,0.0,72,0.00,,,0.00,WUHU216HW,2013-01-01 04:01:00,
2013-01-01 05:06:00,34.5,26.3,30.19,North,0,0.0,0.0,72,0.00,,,0.00,WUHU216HW,2013-01-01 04:06:00,
2013-01-01 05:11:00,34.3,26.1,30.19,North,0,0.0,0.0,72,0.00,,,0.00,WUHU216HW,2013-01-01 04:11:00,
2013-01-01 05:16:00,33.9,25.8,30.19,NNW,338,0.0,0.0,72,0.00,,,0.00,WUHU216HW,2013-01-01 04:16:00,
2013-01-01 05:21:00,33.9,25.8,30.19,WSW,248,0.0,0.0,72,0.00,,,0.00,WUHU216HW,2013-01-01 04:21:00,
2013-01-01 05:26:00,33.8,25.6,30.19,WSW,248,0.0,0.0,72,0.00,,,0.00,WUHU216HW,2013-01-01 04:26:00,
2013-01-01 05:31:00,33.9,25.4,30.19,WSW,248,0.0,0.0,71,0.00,,,0.00,WUHU216HW,2013-01-01 04:31:00,
2013-01-01 05:36:00,33.9,25.4,30.19,West,270,0.0,0.0,71,0.00,,,0.00,WUHU216HW,2013-01-01 04:36:00,
2013-01-01 05:41:00,34.1,25.6,30.18,North,0,0.0,0.0,71,0.00,,,0.00,WUHU216HW,2013-01-01 04:41:00,
2013-01-01 05:46:00,34.3,25.5,30.18,NE,45,0.0,0.6,70,0.00,,,0.00,WUHU216HW,2013-01-01 04:46:00,
2013-01-01 05:51:00,34.7,26.2,30.19,NE,45,0.0,0.6,71,0.00,,,0.00,WUHU216HW,2013-01-01 04:51:00,
2013-01-01 05:56:00,34.7,26.2,30.18,NE,45,0.0,0.0,71,0.00,,,0.00,WUHU216HW,2013-01-01 04:56:00,
2013-01-01 06:00:00,34.5,26.0,30.19,NE,45,0.0,0.0,71,0.00,,,0.00,WUHU216HW,2013-01-01 05:00:00,
2013-01-01 06:02:00,34.5,26.0,30.18,NE,45,0.0,0.0,71,0.00,,,0.00,WUHU216HW,2013-01-01 05:02:00,
2013-01-01 06:10:00,34.7,26.2,30.19,NE,45,0.0,0.0,71,0.00,,,0.00,WUHU216HW,2013-01-01 05:10:00,
2013-01-01 06:15:00,34.7,26.2,30.18,NE,45,0.0,0.0,71,0.00,,,0.00,WUHU216HW,2013-01-01 05:15:00,
2013-01-01 06:20:00,34.7,25.8,30.18,North,0,0.0,0.0,70,0.00,,,0.00,WUHU216HW,2013-01-01 05:20:00,
2013-01-01 06:25:00,34.8,26.0,30.18,NE,45,0.0,0.0,70,0.00,,,0.00,WUHU216HW,2013-01-01 05:25:00,
2013-01-01 06:30:00,35.2,26.4,30.18,NE,45,0.0,0.0,70,0.00,,,0.00,WUHU216HW,2013-01-01 05:30:00,
2013-01-01 06:35:00,35.4,26.4,30.18,NE,45,0.0,0.0,70,0.00,,,0.00,WUHU216HW,2013-01-01 05:35:00,
2013-01-01 06:40:00,35.7,26.9,30.19,NE,45,0.0,0.0,70,0.00,,,0.00,WUHU216HW,2013-01-01 05:40:00,
2013-01-01 06:45:00,35.7,26.9,30.19,NE,45,0.0,0.0,70,0.00,,,0.00,WUHU216HW,2013-01-01 05:45:00,
2013-01-01 06:50:00,36.3,27.5,30.19,East,90,0.0,0.0,70,0.00,,,0.00,WUHU216HW,2013-01-01 05:50:00,
2013-01-01 06:55:00,36.5,28.0,30.19,ENE,68,0.0,0.0,71,0.00,,,0.00,WUHU216HW,2013-01-01 05:55:00,
2013-01-01 07:00:00,36.8,28.6,30.19,NE,45,0.0,0.8,72,0.00,,,0.00,WUHU216HW,2013-01-01 06:00:00,
2013-01-01 07:05:00,36.5,28.3,30.19,NE,45,0.0,0.8,72,0.00,,,0.00,WUHU216HW,2013-01-01 06:05:00,
2013-01-01 07:10:00,36.3,28.1,30.20,East,90,1.7,1.7,72,0.00,,,0.00,WUHU216HW,2013-01-01 06:10:00,
2013-01-01 07:15:00,36.6,28.5,30.20,East,90,0.8,2.4,72,0.00,,,0.00,WUHU216HW,2013-01-01 06:15:00,
2013-01-01 07:20:00,37.2,29.3,30.20,East,90,0.0,2.4,73,0.00,,,0.00,WUHU216HW,2013-01-01 06:20:00,
2013-01-01 07:25:00,37.7,30.0,30.20,East,90,0.0,0.0,73,0.00,,,0.00,WUHU216HW,2013-01-01 06:25:00,
2013-01-01 07:30:00,38.3,30.3,30.20,East,90,0.6,0.6,73,0.00,,,0.00,WUHU216HW,2013-01-01 06:30:00,
2013-01-01 07:35:00,38.4,30.5,30.20,East,90,0.0,0.6,73,0.00,,,0.00,WUHU216HW,2013-01-01 06:35:00,
2013-01-01 07:40:00,38.3,30.3,30.20,SE,135,0.0,0.0,73,0.00,,,0.00,WUHU216HW,2013-01-01 06:40:00,
2013-01-01 07:45:00,38.1,30.2,30.20,SE,135,0.0,0.0,73,0.00,,,0.00,WUHU216HW,2013-01-01 06:45:00,
2013-01-01 07:50:00,37.4,29.5,30.20,WSW,248,0.0,0.0,73,0.00,,,0.00,WUHU216HW,2013-01-01 06:50:00,
2013-01-01 07:55:00,37.0,29.1,30.20,WSW,248,0.0,0.0,73,0.00,,,0.00,WUHU216HW,2013-01-01 06:55:00,
2013-01-01 08:00:00,36.6,29.0,30.20,ENE,68,0.0,0.0,73,0.00,,,0.00,WUHU216HW,2013-01-01 07:00:00,
2013-01-01 08:05:00,36.6,28.8,30.20,ENE,68,0.0,0.6,73,0.00,,,0.00,WUHU216HW,2013-01-01 07:05:00,
2013-01-01 08:10:00,36.6,28.8,30.20,ENE,68,0.0,0.6,73,0.00,,,0.00,WUHU216HW,2013-01-01 07:10:00,
2013-01-01 08:15:00,36.8,29.0,30.20,NNE,23,0.0,0.0,73,0.00,,,0.00,WUHU216HW,2013-01-01 07:15:00,
2013-01-01 08:20:00,37.2,29.3,30.20,NE,45,0.0,0.0,73,0.00,,,0.00,WUHU216HW,2013-01-01 07:20:00,
2013-01-01 08:25:00,37.4,29.5,30.20,NE,45,0.0,0.0,73,0.00,,,0.00,WUHU216HW,2013-01-01 07:25:00,
2013-01-01 08:30:00,37.5,29.7,30.20,NE,45,0.0,0.0,73,0.00,,,0.00,WUHU216HW,2013-01-01 07:30:00,
2013-01-01 08:35:00,37.5,29.7,30.20,NE,45,0.0,0.0,73,0.00,,,0.00,WUHU216HW,2013-01-01 07:35:00,
2013-01-01 08:40:00,37.5,29.7,30.20,NE,45,0.0,0.0,73,0.00,,,0.00,WUHU216HW,2013-01-01 07:40:00,
2013-01-01 08:45:00,37.9,30.0,30.20,NNE,23,0.0,0.0,73,0.00,,,0.00,WUHU216HW,2013-01-01 07:45:00,
2013-01-01 08:50:00,38.8,31.0,30.20,NNE,23,0.0,0.0,73,0.00,,,0.00,WUHU216HW,2013-01-01 07:50:00,
2013-01-01 08:55:00,40.4,32.4,30.20,NE,45,0.0,0.0,73,0.00,,,0.00,WUHU216HW,2013-01-01 07:55:00,
2013-01-01 09:00:00,41.3,33.3,30.20,ESE,113,0.8,0.8,73,0.00,,,0.00,WUHU216HW,2013-01-01 08:00:00,
2013-01-01 09:05:00,42.4,34.0,30.20,SE,135,0.0,0.8,72,0.00,,,0.00,WUHU216HW,2013-01-01 08:05:00,
2013-01-01 09:10:00,43.7,34.6,30.20,SE,135,0.0,0.6,70,0.00,,,0.00,WUHU216HW,2013-01-01 08:10:00,
2013-01-01 09:15:00,43.5,34.4,30.20,SSW,203,0.0,0.6,70,0.00,,,0.00,WUHU216HW,2013-01-01 08:15:00,
2013-01-01 09:20:00,44.7,35.6,30.20,SSW,203,0.0,0.6,70,0.00,,,0.00,WUHU216HW,2013-01-01 08:20:00,
2013-01-01 09:25:00,46.0,36.0,30.20,SSW,203,0.0,0.6,68,0.00,,,0.00,WUHU216HW,2013-01-01 08:25:00,
2013-01-01 09:30:00,47.3,36.3,30.20,SSW,203,0.0,0.0,66,0.00,,,0.00,WUHU216HW,2013-01-01 08:30:00,
2013-01-01 09:35:00,47.8,36.6,30.20,WSW,248,0.0,0.0,65,0.00,,,0.00,WUHU216HW,2013-01-01 08:35:00,
2013-01-01 09:40:00,47.8,36.6,30.20,SW,225,0.0,0.0,65,0.00,,,0.00,WUHU216HW,2013-01-01 08:40:00,
2013-01-01 09:45:00,47.8,36.6,30.21,SSW,203,0.0,0.8,65,0.00,,,0.00,WUHU216HW,2013-01-01 08:45:00,
2013-01-01 09:50:00,47.1,35.5,30.21,SSW,203,0.6,1.3,64,0.00,,,0.00,WUHU216HW,2013-01-01 08:50:00,
2013-01-01 09:55:00,47.6,36.2,30.21,South,180,0.6,1.3,64,0.00,,,0.00,WUHU216HW,2013-01-01 08:55:00,
2013-01-01 10:00:00,48.7,37.0,30.20,SSW,203,0.0,0.8,64,0.00,,,0.00,WUHU216HW,2013-01-01 09:00:00,
2013-01-01 10:05:00,49.8,36.8,30.21,WSW,248,0.0,0.8,61,0.00,,,0.00,WUHU216HW,2013-01-01 09:05:00,
2013-01-01 10:10:00,49.8,36.8,30.21,WSW,248,0.0,0.0,61,0.00,,,0.00,WUHU216HW,2013-01-01 09:10:00,
2013-01-01 10:15:00,50.1,37.2,30.21,West,270,0.0,0.0,61,0.00,,,0.00,WUHU216HW,2013-01-01 09:15:00,
2013-01-01 10:20:00,49.6,36.7,30.21,SW,225,0.0,0.0,61,0.00,,,0.00,WUHU216HW,2013-01-01 09:20:00,
2013-01-01 10:25:00,50.1,37.2,30.21,SSW,203,0.0,1.1,61,0.00,,,0.00,WUHU216HW,2013-01-01 09:25:00,
2013-01-01 10:30:00,51.2,37.8,30.20,WSW,248,0.0,1.1,60,0.00,,,0.00,WUHU216HW,2013-01-01 09:30:00,
2013-01-01 10:35:00,52.3,37.9,30.20,WSW,248,0.0,0.0,59,0.00,,,0.00,WUHU216HW,2013-01-01 09:35:00,
2013-01-01 10:40:00,51.9,37.4,30.20,WNW,293,0.0,0.0,58,0.00,,,0.00,WUHU216HW,2013-01-01 09:40:00,
2013-01-01 10:45:00,51.6,37.2,30.20,WNW,293,0.0,0.0,58,0.00,,,0.00,WUHU216HW,2013-01-01 09:45:00,
2013-01-01 10:50:00,51.9,38.0,30.20,WSW,248,0.0,0.0,59,0.00,,,0.00,WUHU216HW,2013-01-01 09:50:00,
2013-01-01 10:55:00,52.5,38.5,30.20,West,270,0.0,1.3,59,0.00,,,0.00,WUHU216HW,2013-01-01 09:55:00,
2013-01-01 11:00:00,52.8,38.9,30.20,SSE,158,0.0,1.3,59,0.00,,,0.00,WUHU216HW,2013-01-01 10:00:00,
2013-01-01 11:05:00,53.9,39.9,30.20,WSW,248,0.0,0.0,59,0.00,,,0.00,WUHU216HW,2013-01-01 10:05:00,
2013-01-01 11:10:00,55.0,39.9,30.19,West,270,0.0,0.0,57,0.00,,,0.00,WUHU216HW,2013-01-01 10:10:00,
2013-01-01 11:15:00,55.0,39.9,30.20,NNW,338,0.0,0.0,57,0.00,,,0.00,WUHU216HW,2013-01-01 10:15:00,
2013-01-01 11:20:00,54.8,40.4,30.20,West,270,0.8,1.1,58,0.00,,,0.00,WUHU216HW,2013-01-01 10:20:00,
2013-01-01 11:25:00,55.2,40.6,30.20,WSW,248,2.0,2.0,58,0.00,,,0.00,WUHU216HW,2013-01-01 10:25:00,
2013-01-01 11:30:00,55.2,40.6,30.19,SW,225,2.3,2.6,58,0.00,,,0.00,WUHU216HW,2013-01-01 10:30:00,
2013-01-01 11:35:00,55.2,40.1,30.20,SW,225,4.0,4.0,57,0.00,,,0.00,WUHU216HW,2013-01-01 10:35:00,
2013-01-01 11:40:00,55.0,39.9,30.19,SW,225,3.0,6.4,57,0.00,,,0.00,WUHU216HW,2013-01-01 10:40:00,
2013-01-01 11:45:00,55.5,39.2,30.18,SSE,158,1.1,6.4,55,0.00,,,0.00,WUHU216HW,2013-01-01 10:45:00,
2013-01-01 11:50:00,56.4,39.5,30.19,SSE,165,1.9,2.9,53,0.00,,,0.00,WUHU216HW,2013-01-01 10:50:00,
2013-01-01 11:55:00,56.4,39.5,30.18,SSW,203,2.9,3.1,53,0.00,,,0.00,WUHU216HW,2013-01-01 10:55:00,
2013-01-01 12:00:00,55.7,38.8,30.18,SSE,158,5.3,5.3,53,0.00,,,0.00,WUHU216HW,2013-01-01 11:00:00,
2013-01-01 12:05:00,55.2,39.2,30.18,South,180,2.9,5.3,55,0.00,,,0.00,WUHU216HW,2013-01-01 11:05:00,
2013-01-01 12:10:00,56.1,39.6,30.18,SSE,158,2.0,3.5,54,0.00,,,0.00,WUHU216HW,2013-01-01 11:10:00,
2013-01-01 12:15:00,56.8,39.8,30.18,SSW,203,4.3,4.9,53,0.00,,,0.00,WUHU216HW,2013-01-01 11:15:00,
2013-01-01 12:20:00,56.4,38.5,30.17,SSW,203,4.7,4.9,51,0.00,,,0.00,WUHU216HW,2013-01-01 11:20:00,
2013-01-01 12:25:00,56.4,38.5,30.17,SW,225,5.8,5.8,51,0.00,,,0.00,WUHU216HW,2013-01-01 11:25:00,
2013-01-01 12:30:00,55.7,38.3,30.17,SW,225,6.4,6.4,52,0.00,,,0.00,WUHU216HW,2013-01-01 11:30:00,
2013-01-01 12:35:00,55.2,37.3,30.17,SW,225,4.0,6.4,51,0.00,,,0.00,WUHU216HW,2013-01-01 11:35:00,
2013-01-01 12:40:00,55.7,38.3,30.17,SW,225,6.0,6.0,52,0.00,,,0.00,WUHU216HW,2013-01-01 11:40:00,
2013-01-01 12:45:00,56.3,39.3,30.17,SSE,158,6.0,6.0,53,0.00,,,0.00,WUHU216HW,2013-01-01 11:45:00,
2013-01-01 12:50:00,56.8,39.8,30.17,WSW,252,2.2,6.0,53,0.00,,,0.00,WUHU216HW,2013-01-01 11:50:00,
2013-01-01 12:55:00,57.0,40.0,30.16,South,180,6.7,7.6,53,0.00,,,0.00,WUHU216HW,2013-01-01 11:55:00,
2013-01-01 13:00:00,56.4,39.9,30.16,West,270,2.2,9.6,54,0.00,,,0.00,WUHU216HW,2013-01-01 12:00:00,
2013-01-01 13:05:00,55.7,39.7,30.16,SW,223,3.4,9.6,55,0.00,,,0.00,WUHU216HW,2013-01-01 12:05:00,
2013-01-01 13:10:00,55.2,39.6,30.16,West,262,2.9,9.6,56,0.00,,,0.00,WUHU216HW,2013-01-01 12:10:00,
2013-01-01 13:15:00,55.7,40.2,30.16,South,180,5.3,6.7,56,0.00,,,0.00,WUHU216HW,2013-01-01 12:15:00,
2013-01-01 13:20:00,56.8,40.8,30.15,SSE,158,2.6,6.7,55,0.00,,,0.00,WUHU216HW,2013-01-01 12:20:00,
2013-01-01 13:25:00,57.7,41.1,30.16,South,180,7.3,7.3,54,0.00,,,0.00,WUHU216HW,2013-01-01 12:25:00,
2013-01-01 13:30:00,57.3,40.8,30.16,SSW,197,3.8,7.3,54,0.00,,,0.00,WUHU216HW,2013-01-01 12:30:00,
2013-01-01 13:35:00,57.0,40.5,30.15,South,180,3.8,4.6,54,0.00,,,0.00,WUHU216HW,2013-01-01 12:35:00,
2013-01-01 13:40:00,57.0,40.5,30.16,South,189,2.8,4.6,54,0.00,,,0.00,WUHU216HW,2013-01-01 12:40:00,
2013-01-01 13:45:00,57.3,40.8,30.16,SW,225,6.2,6.2,54,0.00,,,0.00,WUHU216HW,2013-01-01 12:45:00,
2013-01-01 13:50:00,57.0,40.5,30.15,SSW,198,3.0,6.2,54,0.00,,,0.00,WUHU216HW,2013-01-01 12:50:00,
2013-01-01 13:55:00,56.1,39.8,30.15,SW,225,2.5,4.9,54,0.00,,,0.00,WUHU216HW,2013-01-01 12:55:00,
2013-01-01 14:00:00,55.7,39.7,30.15,SSW,203,5.1,5.8,55,0.00,,,0.00,WUHU216HW,2013-01-01 13:00:00,
2013-01-01 14:05:00,55.5,40.0,30.16,SW,231,2.8,5.8,56,0.00,,,0.00,WUHU216HW,2013-01-01 13:05:00,
2013-01-01 14:10:00,55.5,40.0,30.16,SW,225,1.5,5.1,56,0.00,,,0.00,WUHU216HW,2013-01-01 13:10:00,
2013-01-01 14:15:00,55.7,39.7,30.16,South,180,2.9,3.5,55,0.00,,,0.00,WUHU216HW,2013-01-01 13:15:00,
2013-01-01 14:20:00,55.7,39.7,30.15,SSW,195,1.9,4.4,55,0.00,,,0.00,WUHU216HW,2013-01-01 13:20:00,
2013-01-01 14:26:00,55.7,39.7,30.16,SSW,203,1.7,4.9,55,0.00,,,0.00,WUHU216HW,2013-01-01 13:26:00,
2013-01-01 14:31:00,55.7,39.7,30.16,SSE,149,2.0,4.9,55,0.00,,,0.00,WUHU216HW,2013-01-01 13:31:00,
2013-01-01 14:36:00,55.5,40.0,30.16,SW,225,1.5,2.6,56,0.00,,,0.00,WUHU216HW,2013-01-01 13:36:00,
2013-01-01 14:41:00,55.5,39.5,30.16,SSW,203,2.0,2.6,55,0.00,,,0.00,WUHU216HW,2013-01-01 13:41:00,
2013-01-01 14:46:00,55.5,40.0,30.16,SW,225,1.5,2.2,56,0.00,,,0.00,WUHU216HW,2013-01-01 13:46:00,
2013-01-01 14:51:00,55.5,40.0,30.15,South,180,0.0,2.6,56,0.00,,,0.00,WUHU216HW,2013-01-01 13:51:00,
2013-01-01 14:56:00,56.1,40.5,30.15,SSW,203,2.9,2.9,56,0.00,,,0.00,WUHU216HW,2013-01-01 13:56:00,
2013-01-01 15:01:00,56.6,40.1,30.16,South,180,3.3,3.5,54,0.00,,,0.00,WUHU216HW,2013-01-01 14:01:00,
2013-01-01 15:06:00,56.1,40.1,30.16,North,0,0.0,3.5,55,0.00,,,0.00,WUHU216HW,2013-01-01 14:06:00,
2013-01-01 15:11:00,55.9,40.3,30.16,South,180,1.3,3.5,56,0.00,,,0.00,WUHU216HW,2013-01-01 14:11:00,
2013-01-01 15:16:00,55.7,40.2,30.16,SW,225,0.0,3.5,56,0.00,,,0.00,WUHU216HW,2013-01-01 14:16:00,
2013-01-01 15:21:00,55.5,40.4,30.16,WSW,248,0.6,1.7,57,0.00,,,0.00,WUHU216HW,2013-01-01 14:21:00,
2013-01-01 15:26:00,55.5,40.4,30.16,SSW,203,3.1,3.1,57,0.00,,,0.00,WUHU216HW,2013-01-01 14:26:00,
2013-01-01 15:31:00,55.2,40.1,30.16,WSW,248,0.0,3.1,57,0.00,,,0.00,WUHU216HW,2013-01-01 14:31:00,
2013-01-01 15:36:00,55.5,40.4,30.16,NW,315,2.4,2.6,57,0.00,,,0.00,WUHU216HW,2013-01-01 14:36:00,
2013-01-01 15:41:00,55.2,41.0,30.16,NNW,338,2.2,2.4,59,0.00,,,0.00,WUHU216HW,2013-01-01 14:41:00,
2013-01-01 15:46:00,54.6,41.8,30.16,NW,315,1.3,2.2,62,0.00,,,0.00,WUHU216HW,2013-01-01 14:46:00,
2013-01-01 15:51:00,54.3,41.9,30.16,NNW,338,2.6,2.6,63,0.00,,,0.00,WUHU216HW,2013-01-01 14:51:00,
2013-01-01 15:56:00,54.1,42.1,30.16,WNW,293,1.1,2.6,64,0.00,,,0.00,WUHU216HW,2013-01-01 14:56:00,
2013-01-01 16:01:00,53.9,42.0,30.16,NW,315,0.0,2.4,64,0.00,,,0.00,WUHU216HW,2013-01-01 15:01:00,
2013-01-01 16:06:00,53.9,42.4,30.16,North,354,1.0,1.3,65,0.00,,,0.00,WUHU216HW,2013-01-01 15:06:00,
2013-01-01 16:11:00,53.7,42.6,30.16,NNW,338,2.2,2.2,66,0.00,,,0.00,WUHU216HW,2013-01-01 15:11:00,
2013-01-01 16:16:00,53.4,42.2,30.16,NE,45,0.0,2.2,66,0.00,,,0.00,WUHU216HW,2013-01-01 15:16:00,
2013-01-01 16:21:00,53.4,42.2,30.16,NNE,23,0.8,2.0,66,0.00,,,0.00,WUHU216HW,2013-01-01 15:21:00,
2013-01-01 16:26:00,53.2,42.5,30.16,East,90,1.3,1.3,67,0.00,,,0.00,WUHU216HW,2013-01-01 15:26:00,
2013-01-01 16:31:00,53.0,42.3,30.16,SE,135,0.8,2.0,67,0.00,,,0.00,WUHU216HW,2013-01-01 15:31:00,
2013-01-01 16:36:00,52.8,42.1,30.16,ENE,68,0.0,2.0,67,0.00,,,0.00,WUHU216HW,2013-01-01 15:36:00,
2013-01-01 16:41:00,52.8,42.1,30.16,East,90,0.0,0.0,67,0.00,,,0.00,WUHU216HW,2013-01-01 15:41:00,
2013-01-01 16:46:00,52.8,42.6,30.17,ENE,68,1.6,1.7,68,0.00,,,0.00,WUHU216HW,2013-01-01 15:46:00,
2013-01-01 16:51:00,52.8,42.6,30.16,ENE,68,0.0,1.7,68,0.00,,,0.00,WUHU216HW,2013-01-01 15:51:00,
2013-01-01 16:56:00,52.8,42.1,30.17,East,90,0.0,1.3,67,0.00,,,0.00,WUHU216HW,2013-01-01 15:56:00,
2013-01-01 17:01:00,52.7,42.4,30.16,East,90,0.0,0.6,68,0.00,,,0.00,WUHU216HW,2013-01-01 16:01:00,
2013-01-01 17:06:00,52.5,42.6,30.16,ENE,68,0.0,1.7,69,0.00,,,0.00,WUHU216HW,2013-01-01 16:06:00,
2013-01-01 17:11:00,52.3,42.9,30.17,East,90,1.3,2.9,70,0.00,,,0.00,WUHU216HW,2013-01-01 16:11:00,
2013-01-01 17:15:00,52.3,42.5,30.17,East,90,0.0,2.9,69,0.00,,,0.00,WUHU216HW,2013-01-01 16:15:00,
2013-01-01 17:20:00,52.1,42.7,30.17,ESE,113,1.1,1.3,70,0.00,,,0.00,WUHU216HW,2013-01-01 16:20:00,
2013-01-01 17:25:00,51.9,42.6,30.17,ESE,113,0.6,1.3,70,0.00,,,0.00,WUHU216HW,2013-01-01 16:25:00,
2013-01-01 17:31:00,51.6,42.2,30.16,NE,45,0.0,1.3,70,0.00,,,0.00,WUHU216HW,2013-01-01 16:31:00,
2013-01-01 17:36:00,51.6,42.2,30.17,North,0,0.0,1.3,70,0.00,,,0.00,WUHU216HW,2013-01-01 16:36:00,
2013-01-01 17:41:00,51.6,42.2,30.17,North,0,0.0,1.3,70,0.00,,,0.00,WUHU216HW,2013-01-01 16:41:00,
2013-01-01 17:46:00,51.6,42.6,30.17,NNE,23,0.0,0.0,71,0.00,,,0.00,WUHU216HW,2013-01-01 16:46:00,
2013-01-01 17:51:00,51.6,42.6,30.17,NE,45,0.0,0.0,71,0.00,,,0.00,WUHU216HW,2013-01-01 16:51:00,
2013-01-01 17:56:00,51.4,42.4,30.17,NNE,23,0.0,0.6,71,0.00,,,0.00,WUHU216HW,2013-01-01 16:56:00,
2013-01-01 18:01:00,51.4,42.4,30.17,NNE,23,0.0,0.6,71,0.00,,,0.00,WUHU216HW,2013-01-01 17:01:00,
2013-01-01 18:06:00,51.2,42.2,30.17,WNW,293,0.0,0.0,71,0.00,,,0.00,WUHU216HW,2013-01-01 17:06:00,
2013-01-01 18:11:00,51.0,42.0,30.17,NE,45,0.0,0.0,71,0.00,,,0.00,WUHU216HW,2013-01-01 17:11:00,
2013-01-01 18:16:00,50.9,42.2,30.17,SE,135,2.4,2.4,72,0.00,,,0.00,WUHU216HW,2013-01-01 17:16:00,
2013-01-01 18:21:00,50.9,42.2,30.18,ESE,113,2.4,2.4,72,0.00,,,0.00,WUHU216HW,2013-01-01 17:21:00,
2013-01-01 18:26:00,50.9,42.2,30.17,ESE,113,2.0,2.4,72,0.00,,,0.00,WUHU216HW,2013-01-01 17:26:00,
2013-01-01 18:31:00,50.9,42.4,30.17,ENE,68,0.0,2.0,72,0.00,,,0.00,WUHU216HW,2013-01-01 17:31:00,
2013-01-01 18:36:00,50.9,42.2,30.17,ESE,113,0.0,1.3,72,0.00,,,0.00,WUHU216HW,2013-01-01 17:36:00,
2013-01-01 18:41:00,50.9,42.2,30.17,ENE,68,0.8,0.8,72,0.00,,,0.00,WUHU216HW,2013-01-01 17:41:00,
2013-01-01 18:46:00,50.9,42.2,30.17,ESE,113,0.0,0.8,72,0.00,,,0.00,WUHU216HW,2013-01-01 17:46:00,
2013-01-01 18:51:00,50.7,42.0,30.17,North,0,0.0,0.0,72,0.00,,,0.00,WUHU216HW,2013-01-01 17:51:00,
2013-01-01 18:56:00,50.7,42.0,30.17,North,0,0.0,0.0,72,0.00,,,0.00,WUHU216HW,2013-01-01 17:56:00,
2013-01-01 19:01:00,50.5,41.8,30.17,North,0,0.0,0.0,72,0.00,,,0.00,WUHU216HW,2013-01-01 18:01:00,
2013-01-01 19:06:00,50.5,41.5,30.17,North,0,0.0,0.0,71,0.00,,,0.00,WUHU216HW,2013-01-01 18:06:00,
2013-01-01 19:11:00,50.1,40.8,30.18,NNE,23,0.0,1.5,70,0.00,,,0.00,WUHU216HW,2013-01-01 18:11:00,
2013-01-01 19:16:00,49.8,40.0,30.18,ENE,68,0.8,1.5,69,0.00,,,0.00,WUHU216HW,2013-01-01 18:16:00,
2013-01-01 19:21:00,49.8,40.0,30.18,ESE,113,0.0,0.8,69,0.00,,,0.00,WUHU216HW,2013-01-01 18:21:00,
2013-01-01 19:26:00,49.6,40.2,30.18,West,270,0.0,0.0,70,0.00,,,0.00,WUHU216HW,2013-01-01 18:26:00,
2013-01-01 19:31:00,49.2,39.5,30.17,West,270,0.0,0.0,69,0.00,,,0.00,WUHU216HW,2013-01-01 18:31:00,
2013-01-01 19:36:00,49.2,39.1,30.17,East,90,0.0,0.8,68,0.00,,,0.00,WUHU216HW,2013-01-01 18:36:00,
2013-01-01 19:41:00,49.1,38.9,30.17,NE,45,0.0,0.8,68,0.00,,,0.00,WUHU216HW,2013-01-01 18:41:00,
2013-01-01 19:46:00,48.7,38.2,30.17,NE,45,0.0,0.0,67,0.00,,,0.00,WUHU216HW,2013-01-01 18:46:00,
2013-01-01 19:51:00,48.7,38.2,30.18,East,90,0.6,0.6,67,0.00,,,0.00,WUHU216HW,2013-01-01 18:51:00,
2013-01-01 19:56:00,48.7,38.2,30.18,ESE,113,0.0,0.6,67,0.00,,,0.00,WUHU216HW,2013-01-01 18:56:00,
2013-01-01 20:01:00,48.7,37.8,30.18,ESE,113,0.0,0.0,66,0.00,,,0.00,WUHU216HW,2013-01-01 19:01:00,
2013-01-01 20:06:00,48.7,38.2,30.18,ESE,113,0.0,0.0,67,0.00,,,0.00,WUHU216HW,2013-01-01 19:06:00,
2013-01-01 20:11:00,48.7,38.2,30.18,ESE,113,0.0,0.0,67,0.00,,,0.00,WUHU216HW,2013-01-01 19:11:00,
2013-01-01 20:16:00,48.5,37.6,30.18,NNE,23,0.0,0.0,66,0.00,,,0.00,WUHU216HW,2013-01-01 19:16:00,
2013-01-01 20:21:00,48.3,37.4,30.18,NNE,23,0.0,0.0,66,0.00,,,0.00,WUHU216HW,2013-01-01 19:21:00,
2013-01-01 20:26:00,48.3,37.1,30.18,NNE,23,0.0,0.0,65,0.00,,,0.00,WUHU216HW,2013-01-01 19:26:00,
2013-01-01 20:31:00,48.5,36.8,30.18,SE,135,0.0,0.0,64,0.00,,,0.00,WUHU216HW,2013-01-01 19:31:00,
2013-01-01 20:36:00,48.5,37.2,30.18,SSE,158,0.0,0.0,65,0.00,,,0.00,WUHU216HW,2013-01-01 19:36:00,
2013-01-01 20:41:00,48.5,37.2,30.18,North,0,0.0,0.0,65,0.00,,,0.00,WUHU216HW,2013-01-01 19:41:00,
2013-01-01 20:46:00,48.3,37.1,30.17,SSE,158,0.0,0.0,65,0.00,,,0.00,WUHU216HW,2013-01-01 19:46:00,
2013-01-01 20:51:00,48.3,36.7,30.18,SSE,158,0.0,0.0,64,0.00,,,0.00,WUHU216HW,2013-01-01 19:51:00,
2013-01-01 20:56:00,48.2,36.5,30.18,SSE,158,0.0,0.0,64,0.00,,,0.00,WUHU216HW,2013-01-01 19:56:00,
2013-01-01 21:01:00,48.3,36.7,30.18,ESE,113,0.8,0.8,64,0.00,,,0.00,WUHU216HW,2013-01-01 20:01:00,
2013-01-01 21:06:00,48.5,36.8,30.18,ESE,113,0.0,0.8,64,0.00,,,0.00,WUHU216HW,2013-01-01 20:06:00,
2013-01-01 21:11:00,48.7,37.4,30.18,SW,225,0.0,0.0,65,0.00,,,0.00,WUHU216HW,2013-01-01 20:11:00,
2013-01-01 21:16:00,48.7,37.4,30.19,WNW,293,0.0,0.0,66,0.00,,,0.00,WUHU216HW,2013-01-01 20:16:00,
2013-01-01 21:21:00,48.7,37.8,30.18,WNW,293,0.0,0.0,66,0.00,,,0.00,WUHU216HW,2013-01-01 20:21:00,
2013-01-01 21:26:00,48.5,37.6,30.18,SSW,203,0.0,0.0,66,0.00,,,0.00,WUHU216HW,2013-01-01 20:26:00,
2013-01-01 21:31:00,48.7,37.4,30.18,ESE,113,0.8,0.8,65,0.00,,,0.00,WUHU216HW,2013-01-01 20:31:00,
2013-01-01 21:36:00,48.7,37.4,30.18,ESE,113,0.0,0.8,65,0.00,,,0.00,WUHU216HW,2013-01-01 20:36:00,
2013-01-01 21:41:00,48.7,37.8,30.18,SE,135,0.0,0.0,66,0.00,,,0.00,WUHU216HW,2013-01-01 20:41:00,
2013-01-01 21:46:00,48.9,38.0,30.18,East,90,0.0,0.0,66,0.00,,,0.00,WUHU216HW,2013-01-01 20:46:00,
2013-01-01 21:52:00,48.9,38.0,30.18,SSW,203,1.1,1.5,66,0.00,,,0.00,WUHU216HW,2013-01-01 20:52:00,
2013-01-01 21:57:00,48.9,38.3,30.18,West,270,0.0,1.5,67,0.00,,,0.00,WUHU216HW,2013-01-01 20:57:00,
2013-01-01 22:02:00,48.9,38.0,30.18,NNW,338,0.0,0.0,66,0.00,,,0.00,WUHU216HW,2013-01-01 21:02:00,
2013-01-01 22:07:00,48.9,37.6,30.18,NE,45,0.0,0.0,65,0.00,,,0.00,WUHU216HW,2013-01-01 21:07:00,
2013-01-01 22:12:00,48.7,37.0,30.18,East,90,1.3,2.9,64,0.00,,,0.00,WUHU216HW,2013-01-01 21:12:00,
2013-01-01 22:17:00,48.9,38.0,30.18,SE,135,0.0,2.9,66,0.00,,,0.00,WUHU216HW,2013-01-01 21:17:00,
2013-01-01 22:22:00,49.1,38.1,30.18,NE,45,0.0,2.2,66,0.00,,,0.00,WUHU216HW,2013-01-01 21:22:00,
2013-01-01 22:27:00,48.9,38.3,30.18,WSW,248,0.0,2.2,67,0.00,,,0.00,WUHU216HW,2013-01-01 21:27:00,
2013-01-01 22:32:00,48.7,37.4,30.18,East,90,1.3,1.3,65,0.00,,,0.00,WUHU216HW,2013-01-01 21:32:00,
2013-01-01 22:37:00,48.7,37.4,30.18,East,90,1.5,2.0,65,0.00,,,0.00,WUHU216HW,2013-01-01 21:37:00,
2013-01-01 22:42:00,48.9,37.6,30.18,SSW,203,0.0,2.0,65,0.00,,,0.00,WUHU216HW,2013-01-01 21:42:00,
2013-01-01 22:47:00,48.9,38.0,30.18,WSW,248,1.7,1.7,66,0.00,,,0.00,WUHU216HW,2013-01-01 21:47:00,
2013-01-01 22:52:00,48.7,37.8,30.18,SSW,203,1.1,1.7,66,0.00,,,0.00,WUHU216HW,2013-01-01 21:52:00,
2013-01-01 22:57:00,48.7,37.4,30.17,NW,324,1.0,1.3,65,0.00,,,0.00,WUHU216HW,2013-01-01 21:57:00,
2013-01-01 23:02:00,48.3,37.1,30.18,ENE,68,0.0,1.3,65,0.00,,,0.00,WUHU216HW,2013-01-01 22:02:00,
2013-01-01 23:07:00,48.0,36.3,30.17,North,0,0.6,1.1,64,0.00,,,0.00,WUHU216HW,2013-01-01 22:07:00,
2013-01-01 23:12:00,48.0,36.0,30.17,NE,45,2.6,3.8,63,0.00,,,0.00,WUHU216HW,2013-01-01 22:12:00,
2013-01-01 23:17:00,48.3,36.3,30.17,ESE,113,1.5,3.8,64,0.00,,,0.00,WUHU216HW,2013-01-01 22:17:00,
2013-01-01 23:22:00,48.3,36.7,30.17,West,270,0.0,2.2,64,0.00,,,0.00,WUHU216HW,2013-01-01 22:22:00,
2013-01-01 23:27:00,48.0,36.3,30.17,SW,225,0.0,1.5,64,0.00,,,0.00,WUHU216HW,2013-01-01 22:27:00,
2013-01-01 23:32:00,48.0,36.3,30.17,ESE,113,0.8,0.8,64,0.00,,,0.00,WUHU216HW,2013-01-01 22:32:00,
2013-01-01 23:37:00,48.2,36.5,30.17,NNE,23,0.0,0.8,64,0.00,,,0.00,WUHU216HW,2013-01-01 22:37:00,
2013-01-01 23:42:00,48.0,36.3,30.17,North,0,1.3,1.3,64,0.00,,,0.00,WUHU216HW,2013-01-01 22:42:00,
2013-01-01 23:47:00,48.0,36.0,30.17,ENE,68,0.0,1.3,63,0.00,,,0.00,WUHU216HW,2013-01-01 22:47:00,
2013-01-01 23:52:00,47.8,35.8,30.17,ENE,68,0.0,0.0,63,0.00,,,0.00,WUHU216HW,2013-01-01 22:52:00,
2013-01-01 23:57:00,47.6,35.4,30.17,North,0,1.1,1.1,62,0.00,,,0.00,WUHU216HW,2013-01-01 22:57:00,